Time;durP1;ratioP1;P1;durP2;ratioP2;P2;SDS_P1;SDS_P2;PMS_P1;PMS_P2;Temp;Humidity;BMP_temperature;BMP_pressure;BME280_temperature;BME280_humidity;BME280_pressure;Samples;Min_cycle;Max_cycle;Signal;HPM_P1;HPM_P2
2022/12/28 00:01:06;;;;;;;18.07;10.90;;;1.40;99.90;;;0.07;100.00;98145.59;4973293;28;20408;-72
2022/12/28 00:03:32;;;;;;;27.95;12.88;;;1.40;99.90;;;0.07;100.00;98143.00;5002392;28;20405;-73
2022/12/28 00:05:58;;;;;;;25.75;11.80;;;1.40;99.90;;;0.08;100.00;98141.97;5011943;28;20397;-73
2022/12/28 00:08:24;;;;;;;17.13;10.50;;;1.40;99.90;;;0.09;100.00;98141.00;5011832;28;20491;-73
2022/12/28 00:10:50;;;;;;;21.15;11.35;;;1.40;99.90;;;0.07;100.00;98133.41;5012037;28;20519;-72
2022/12/28 00:13:17;;;;;;;19.23;11.07;;;1.40;99.90;;;0.11;100.00;98134.66;5010760;28;20412;-73
2022/12/28 00:15:43;;;;;;;20.80;11.60;;;1.40;99.90;;;0.11;100.00;98124.25;5011695;28;20428;-72
2022/12/28 00:18:09;;;;;;;22.25;11.98;;;1.50;99.90;;;0.12;100.00;98128.50;5010381;28;20914;-72
2022/12/28 00:20:35;;;;;;;23.90;12.00;;;1.50;99.90;;;0.16;100.00;98123.75;5011613;28;20397;-72
2022/12/28 00:23:04;;;;;;;21.08;11.75;;;1.50;99.90;;;0.14;100.00;98116.13;5010458;28;20400;-73
2022/12/28 00:25:33;;;;;;;20.90;11.70;;;1.50;99.90;;;0.16;100.00;98116.75;5011463;28;20906;-73
2022/12/28 00:27:58;;;;;;;17.25;10.80;;;1.50;99.90;;;0.15;100.00;98119.53;5011382;28;20413;-72
2022/12/28 00:30:26;;;;;;;17.50;10.82;;;1.50;99.90;;;0.14;100.00;98117.91;5011268;28;20508;-72
2022/12/28 00:32:52;;;;;;;22.45;11.93;;;1.50;99.90;;;0.14;100.00;98116.13;5010540;28;20408;-72
2022/12/28 00:35:17;;;;;;;20.33;11.85;;;1.50;99.90;;;0.14;100.00;98117.91;5011268;28;20635;-72
2022/12/28 00:37:43;;;;;;;19.70;11.75;;;1.50;99.90;;;0.15;100.00;98116.94;5011234;28;20407;-73
2022/12/28 00:40:10;;;;;;;22.02;11.23;;;1.50;99.90;;;0.16;100.00;98115.94;5011148;28;20887;-73
2022/12/28 00:42:36;;;;;;;21.65;11.55;;;1.50;99.90;;;0.17;100.00;98110.56;5009246;28;20409;-72
2022/12/28 00:45:02;;;;;;;22.73;10.43;;;1.50;99.90;;;0.20;100.00;98112.03;5011049;28;20411;-73
2022/12/28 00:47:29;;;;;;;19.23;10.67;;;1.50;99.90;;;0.21;100.00;98116.25;5011029;28;20416;-73
2022/12/28 00:49:55;;;;;;;19.98;10.65;;;1.50;99.90;;;0.23;100.00;98111.69;5010807;28;20437;-73
2022/12/28 00:52:21;;;;;;;20.38;11.80;;;1.60;99.90;;;0.24;100.00;98106.31;5010358;28;20409;-72
2022/12/28 00:54:47;;;;;;;18.17;10.80;;;1.60;99.90;;;0.28;100.00;98096.38;5010682;28;20458;-72
2022/12/28 00:57:13;;;;;;;21.73;10.47;;;1.60;99.90;;;0.28;100.00;98097.19;5010891;28;20412;-72
2022/12/28 00:59:39;;;;;;;20.92;10.95;;;1.60;99.90;;;0.33;100.00;98092.28;5010815;28;20405;-72
2022/12/28 01:02:05;;;;;;;19.50;10.20;;;1.70;99.90;;;0.42;100.00;98087.88;5010490;28;20400;-72
2022/12/28 01:04:32;;;;;;;20.63;10.75;;;1.70;99.90;;;0.44;100.00;98078.09;5010765;28;20409;-72
2022/12/28 01:06:58;;;;;;;19.88;10.63;;;1.80;99.90;;;0.60;100.00;98079.81;5010798;28;20408;-72
2022/12/28 01:09:24;;;;;;;22.00;10.10;;;1.80;99.90;;;0.59;100.00;98071.19;5009990;28;20430;-73
2022/12/28 01:11:50;;;;;;;17.70;10.35;;;1.90;99.90;;;0.61;100.00;98064.00;5010695;28;20409;-72
2022/12/28 01:14:16;;;;;;;23.65;10.60;;;1.90;99.90;;;0.68;100.00;98067.53;5010940;28;20431;-72
2022/12/28 01:16:42;;;;;;;16.73;10.10;;;2.00;99.90;;;0.74;100.00;98058.25;5011306;28;20448;-72
2022/12/28 01:19:13;;;;;;;23.27;9.93;;;2.00;99.90;;;0.75;100.00;98059.88;5010677;28;20412;-73
2022/12/28 01:21:41;;;;;;;18.83;10.02;;;2.10;99.90;;;0.79;100.00;98058.53;5009994;28;20417;-72
2022/12/28 01:24:08;;;;;;;17.48;9.77;;;2.10;99.90;;;0.87;100.00;98058.47;5010267;28;20442;-72
2022/12/28 01:26:35;;;;;;;17.80;9.20;;;2.20;99.90;;;0.86;100.00;98049.03;5010320;28;20494;-72
2022/12/28 01:29:01;;;;;;;16.73;8.45;;;2.10;99.90;;;0.94;100.00;98048.16;5010347;28;20427;-73
2022/12/28 01:31:27;;;;;;;13.25;8.60;;;2.20;99.90;;;0.95;100.00;98047.19;5008476;28;20428;-72
2022/12/28 01:33:54;;;;;;;17.30;8.70;;;2.20;99.90;;;0.98;100.00;98050.22;5009827;28;20431;-73
2022/12/28 01:36:23;;;;;;;18.87;8.23;;;2.30;99.90;;;1.01;100.00;98041.25;5010180;28;20404;-73
2022/12/28 01:38:54;;;;;;;17.23;8.85;;;2.30;99.90;;;0.97;100.00;98042.63;5010111;28;20496;-73
2022/12/28 01:41:21;;;;;;;25.48;9.02;;;2.20;99.90;;;1.00;100.00;98029.22;5009740;28;20480;-73
2022/12/28 01:44:35;;;;;;;16.73;8.35;;;2.30;99.90;;;0.97;100.00;98040.81;5009904;28;20412;-73
2022/12/28 01:47:05;;;;;;;16.37;8.60;;;2.30;99.90;;;0.97;100.00;98026.97;5010343;28;20890;-73
2022/12/28 01:49:36;;;;;;;17.45;8.80;;;2.30;99.90;;;1.01;100.00;98029.03;5010015;28;20417;-73
2022/12/28 01:52:09;;;;;;;16.47;7.87;;;2.30;99.90;;;1.02;100.00;98028.06;5009416;28;20396;-73
2022/12/28 01:54:41;;;;;;;16.27;8.85;;;2.30;99.90;;;1.04;100.00;98013.06;5008558;28;20420;-73
2022/12/28 01:57:07;;;;;;;13.05;7.60;;;2.30;99.90;;;1.11;100.00;98021.81;5010288;28;20896;-73
2022/12/28 01:59:39;;;;;;;13.75;8.02;;;2.40;99.90;;;1.07;100.00;98017.91;5010061;28;20404;-73
2022/12/28 02:02:06;;;;;;;15.43;8.60;;;2.40;99.90;;;1.08;100.00;98014.31;4993224;28;20866;-73
2022/12/28 02:04:32;;;;;;;12.33;6.97;;;2.30;99.90;;;1.10;100.00;98004.53;4990182;28;20408;-73
2022/12/28 02:06:58;;;;;;;12.00;7.13;;;2.40;99.90;;;1.13;100.00;98000.75;5005418;28;20422;-73
2022/12/28 02:09:30;;;;;;;10.87;6.83;;;2.40;99.90;;;1.13;100.00;97996.34;4990347;28;20493;-73
2022/12/28 02:11:59;;;;;;;12.13;6.90;;;2.40;99.90;;;1.13;100.00;97988.53;4989684;28;20987;-73
2022/12/28 02:14:25;;;;;;;15.38;7.25;;;2.40;99.90;;;1.14;100.00;97984.94;4990083;28;20486;-73
2022/12/28 02:16:52;;;;;;;12.27;7.20;;;2.40;99.90;;;1.20;100.00;97982.63;4990292;28;20410;-73
2022/12/28 02:19:29;;;;;;;11.27;6.85;;;2.40;99.90;;;1.19;100.00;97981.81;4990233;28;21019;-73
2022/12/28 02:22:22;;;;;;;11.05;6.93;;;2.40;99.90;;;1.20;100.00;97985.25;4992644;28;20406;-73
2022/12/28 02:25:45;;;;;;;13.45;6.30;;;2.50;99.90;;;1.23;100.00;97972.63;4994039;28;20494;-73
2022/12/28 02:28:53;;;;;;;10.48;5.90;;;2.50;99.90;;;1.28;100.00;97975.50;4975982;28;20505;-73
2022/12/28 02:31:26;;;;;;;9.73;5.83;;;2.50;99.90;;;1.29;100.00;97965.91;4947017;28;20437;-73
2022/12/28 02:34:03;;;;;;;12.40;6.03;;;2.60;99.90;;;1.32;100.00;97962.94;4992518;28;20557;-73
2022/12/28 02:36:37;;;;;;;8.82;5.60;;;2.60;99.90;;;1.31;100.00;97961.31;5001990;28;20405;-73
2022/12/28 02:39:09;;;;;;;10.27;5.60;;;2.60;99.90;;;1.32;100.00;97958.53;5001911;28;20445;-73
2022/12/28 02:41:38;;;;;;;9.60;5.10;;;2.60;99.90;;;1.33;100.00;97960.16;5003342;28;20757;-73
2022/12/28 02:44:04;;;;;;;7.03;4.80;;;2.60;99.90;;;1.38;100.00;97957.81;5012229;28;20890;-73
2022/12/28 02:52:15;;;;;;;8.48;4.40;;;2.70;99.90;;;1.52;100.00;97941.38;5012837;28;20945;-73
2022/12/28 02:58:09;;;;;;;8.75;3.80;;;2.80;99.90;;;1.78;100.00;97933.09;5002836;28;20486;-73
2022/12/28 03:00:55;;;;;;;9.10;4.32;;;2.90;99.90;;;1.92;100.00;97921.00;5011997;28;20400;-73
2022/12/28 03:03:31;;;;;;;5.65;3.60;;;3.10;99.90;;;1.95;100.00;97916.22;5012199;28;20450;-73
2022/12/28 03:09:01;;;;;;;7.38;3.35;;;3.20;99.90;;;2.10;100.00;97907.56;5009972;28;20503;-73
2022/12/28 03:11:37;;;;;;;6.35;3.20;;;3.30;99.90;;;2.19;100.00;97891.56;5000835;28;20464;-72
2022/12/28 03:14:09;;;;;;;5.03;3.22;;;3.40;99.90;;;2.24;100.00;97897.06;5000984;28;20497;-73
2022/12/28 03:33:22;;;;;;;5.43;3.30;;;3.50;99.90;;;2.49;100.00;97900.09;5010996;28;20763;-73
2022/12/28 03:36:00;;;;;;;7.37;3.37;;;3.60;99.90;;;2.43;100.00;97900.84;5012315;28;20400;-73
2022/12/28 03:41:13;;;;;;;9.68;3.47;;;3.60;99.90;;;2.42;100.00;97899.22;4991397;28;20430;-74
2022/12/28 03:43:46;;;;;;;6.00;3.10;;;3.60;99.90;;;2.51;100.00;97892.06;4992525;28;20452;-74
2022/12/28 03:46:19;;;;;;;4.68;3.30;;;3.70;99.90;;;2.46;100.00;97889.22;4992909;28;20450;-74
2022/12/28 03:48:46;;;;;;;7.30;3.20;;;3.60;99.90;;;2.47;100.00;97880.41;4992632;28;20402;-74
2022/12/28 03:51:18;;;;;;;5.80;3.13;;;3.70;99.90;;;2.47;100.00;97878.59;4992601;28;20935;-74
2022/12/28 03:53:46;;;;;;;8.02;3.78;;;3.70;99.90;;;2.68;100.00;97881.19;4992254;28;20831;-74
2022/12/28 03:56:15;;;;;;;6.43;3.15;;;3.80;99.90;;;2.58;100.00;97878.06;4992614;28;20403;-74
2022/12/28 03:58:41;;;;;;;8.38;3.50;;;3.80;99.90;;;2.57;100.00;97867.81;4992538;28;20406;-74
2022/12/28 04:01:08;;;;;;;5.22;3.20;;;3.70;99.90;;;2.50;100.00;97869.56;4992448;28;20488;-74
2022/12/28 04:03:34;;;;;;;7.53;3.85;;;3.70;99.90;;;2.62;100.00;97870.69;4991541;28;20458;-74
2022/12/28 04:06:00;;;;;;;6.57;3.55;;;3.80;99.90;;;2.53;100.00;97869.19;4992399;28;20421;-74
2022/12/28 04:08:28;;;;;;;10.75;3.50;;;3.70;99.90;;;2.47;100.00;97864.72;4992431;28;20402;-74
2022/12/28 04:10:54;;;;;;;8.75;3.22;;;3.70;99.90;;;2.69;100.00;97868.94;4992226;28;20804;-74
2022/12/28 04:13:20;;;;;;;5.20;3.60;;;3.80;99.90;;;2.54;100.00;97861.16;4991368;28;20414;-73
2022/12/28 04:15:56;;;;;;;6.40;3.13;;;3.80;99.90;;;2.70;100.00;97867.94;4992482;28;20635;-74
2022/12/28 04:18:22;;;;;;;6.30;3.15;;;3.80;99.90;;;2.70;100.00;97858.28;4992220;28;20415;-75
2022/12/28 04:20:48;;;;;;;5.27;3.30;;;3.90;99.90;;;2.67;100.00;97860.47;4992202;28;20414;-74
2022/12/28 04:23:14;;;;;;;6.95;3.33;;;3.80;99.90;;;2.58;100.00;97851.13;4991080;28;20415;-74
2022/12/28 04:25:41;;;;;;;7.53;3.17;;;3.80;99.90;;;2.55;100.00;97859.38;4992075;28;20402;-75
2022/12/28 04:28:07;;;;;;;6.97;3.33;;;3.70;99.90;;;2.70;100.00;97855.69;4992055;28;20477;-75
2022/12/28 04:30:33;;;;;;;8.20;3.23;;;3.70;99.90;;;2.59;100.00;97844.91;4991834;28;20422;-74
2022/12/28 04:32:59;;;;;;;6.18;3.13;;;3.80;99.90;;;2.52;100.00;97837.03;4990922;28;20514;-74
2022/12/28 04:35:24;;;;;;;8.10;3.38;;;3.70;99.90;;;2.51;100.00;97832.78;4991950;28;20418;-74
2022/12/28 04:37:50;;;;;;;6.07;3.50;;;3.70;99.90;;;2.64;100.00;97837.31;4991889;28;20402;-74
2022/12/28 04:40:16;;;;;;;6.97;3.70;;;3.80;99.90;;;2.69;100.00;97832.34;4991565;28;20908;-75
2022/12/28 04:42:43;;;;;;;6.93;3.60;;;3.90;99.90;;;2.73;100.00;97833.56;4991031;28;20413;-74
2022/12/28 04:45:10;;;;;;;5.60;3.20;;;3.90;99.90;;;2.59;100.00;97837.88;4990808;28;20708;-74
2022/12/28 04:47:35;;;;;;;7.97;3.58;;;3.80;99.90;;;2.59;100.00;97835.25;4991574;28;20469;-74
2022/12/28 04:50:01;;;;;;;5.45;3.42;;;3.80;99.90;;;2.58;100.00;97838.06;4990261;28;20800;-73
2022/12/28 04:52:27;;;;;;;4.73;3.27;;;3.80;99.90;;;2.62;100.00;97829.69;4990956;28;20415;-75
2022/12/28 04:54:53;;;;;;;8.02;3.30;;;3.80;99.90;;;2.59;100.00;97835.25;4991246;28;20410;-74
2022/12/28 04:57:19;;;;;;;6.05;3.30;;;3.80;99.90;;;2.63;100.00;97841.72;4991412;28;20414;-74
2022/12/28 04:59:46;;;;;;;6.13;3.30;;;3.80;99.90;;;2.66;100.00;97837.94;4991563;28;20460;-74
2022/12/28 05:02:12;;;;;;;6.55;3.40;;;3.80;99.90;;;2.68;100.00;97828.91;4990840;28;20413;-75
2022/12/28 05:04:38;;;;;;;6.10;3.03;;;3.90;99.90;;;2.66;100.00;97824.84;4991191;28;20508;-74
2022/12/28 05:07:04;;;;;;;8.35;3.35;;;3.80;99.90;;;2.64;100.00;97826.84;4991431;28;20452;-74
2022/12/28 05:09:30;;;;;;;6.88;3.33;;;3.80;99.90;;;2.65;100.00;97826.66;4991317;28;20410;-74
2022/12/28 05:11:55;;;;;;;5.13;3.27;;;3.90;99.90;;;2.64;100.00;97826.84;4989272;28;20406;-74
2022/12/28 05:14:21;;;;;;;7.43;3.30;;;3.80;99.90;;;2.63;100.00;97833.88;5009881;28;20766;-75
2022/12/28 05:16:51;;;;;;;6.60;3.00;;;3.90;99.90;;;2.66;100.00;97822.25;5010881;28;20443;-74
2022/12/28 05:19:17;;;;;;;9.68;3.30;;;3.90;99.90;;;2.60;100.00;97825.63;5010712;28;20446;-74
2022/12/28 05:21:42;;;;;;;7.53;3.20;;;3.80;99.90;;;2.65;100.00;97812.78;5010313;28;20405;-75
2022/12/28 05:24:08;;;;;;;7.38;2.88;;;3.80;99.90;;;2.62;100.00;97813.19;5010402;28;20492;-75
2022/12/28 05:26:34;;;;;;;6.43;3.33;;;3.80;99.90;;;2.64;100.00;97811.97;5010719;28;20992;-75
2022/12/28 05:29:01;;;;;;;5.82;2.95;;;3.80;99.90;;;2.68;100.00;97820.25;5010746;28;20453;-74
2022/12/28 05:31:27;;;;;;;6.95;3.30;;;3.80;99.90;;;2.85;100.00;97818.16;5010129;28;20482;-74
2022/12/28 05:33:54;;;;;;;4.72;2.90;;;3.90;99.90;;;2.79;100.00;97816.28;5010215;28;20757;-74
2022/12/28 05:36:22;;;;;;;7.00;2.83;;;4.00;99.90;;;2.80;100.00;97818.72;5010575;28;20463;-74
2022/12/28 05:38:49;;;;;;;6.07;2.90;;;3.90;99.90;;;2.70;100.00;97807.81;5010517;28;20920;-75
2022/12/28 05:41:18;;;;;;;6.18;2.97;;;3.90;99.90;;;2.86;100.00;97817.16;5009893;28;20409;-75
2022/12/28 05:43:45;;;;;;;7.20;2.78;;;4.00;99.90;;;2.78;100.00;97812.91;5010101;28;20434;-75
2022/12/28 05:46:16;;;;;;;4.50;2.90;;;4.00;99.90;;;2.80;100.00;97812.69;5010520;28;20408;-75
2022/12/28 05:48:42;;;;;;;7.27;2.73;;;4.00;99.90;;;2.79;100.00;97811.06;5010311;28;20847;-74
2022/12/28 05:51:12;;;;;;;5.30;3.22;;;4.00;99.90;;;2.78;100.00;97819.94;5010553;28;20413;-74
2022/12/28 05:53:38;;;;;;;8.05;3.30;;;3.90;99.90;;;2.72;100.00;97817.06;5009896;28;20412;-75
2022/12/28 05:56:09;;;;;;;8.10;3.40;;;3.90;99.90;;;2.71;100.00;97815.44;5010031;28;20401;-75
2022/12/28 05:58:35;;;;;;;5.95;3.25;;;4.00;99.90;;;2.80;100.00;97810.06;5010240;28;20504;-74
2022/12/28 06:01:07;;;;;;;7.15;3.00;;;4.00;99.90;;;2.86;100.00;97809.31;5010298;28;20402;-75
2022/12/28 06:03:33;;;;;;;9.60;3.25;;;4.10;99.90;;;2.83;100.00;97804.47;5009370;28;20403;-75
2022/12/28 06:06:05;;;;;;;5.18;3.13;;;4.00;99.90;;;2.76;100.00;97806.25;5010303;28;20436;-74
2022/12/28 06:08:33;;;;;;;4.38;2.85;;;4.00;99.90;;;2.81;100.00;97790.78;5014151;28;20453;-75
2022/12/28 06:11:00;;;;;;;7.47;3.00;;;4.00;99.90;;;2.86;100.00;97773.50;5010131;28;20461;-75
2022/12/28 06:13:26;;;;;;;6.88;3.30;;;4.10;99.90;;;2.85;100.00;97786.78;5009355;28;20420;-75
2022/12/28 06:15:53;;;;;;;4.57;3.00;;;4.00;99.90;;;2.90;100.00;97781.78;5010233;28;20409;-75
2022/12/28 06:18:18;;;;;;;5.53;2.50;;;4.00;99.90;;;3.04;100.00;97775.63;5010081;28;20405;-76
2022/12/28 06:20:44;;;;;;;5.68;2.80;;;4.20;99.90;;;3.01;100.00;97771.59;5010144;28;20484;-76
2022/12/28 06:23:10;;;;;;;4.00;2.60;;;4.20;99.90;;;2.98;100.00;97772.00;5009203;28;20771;-75
2022/12/28 06:25:38;;;;;;;3.83;2.55;;;4.10;99.90;;;2.95;100.00;97766.31;5010043;28;20506;-76
2022/12/28 06:28:04;;;;;;;5.43;2.40;;;4.10;99.90;;;2.92;100.00;97769.34;5009984;28;20408;-76
2022/12/28 06:30:30;;;;;;;5.00;2.60;;;4.10;99.90;;;2.86;100.00;97773.50;5009842;28;20421;-75
2022/12/28 06:32:56;;;;;;;3.50;2.80;;;4.10;99.90;;;2.90;100.00;97777.38;5009209;28;20440;-75
2022/12/28 06:35:22;;;;;;;5.65;2.83;;;4.10;99.90;;;2.88;100.00;97776.75;5009811;28;20921;-75
2022/12/28 06:37:49;;;;;;;6.20;2.88;;;4.10;99.90;;;2.91;100.00;97778.19;5008543;28;20833;-74
2022/12/28 06:40:15;;;;;;;5.70;2.92;;;4.10;99.90;;;2.86;100.00;97776.13;5000161;28;20493;-74
2022/12/28 06:42:42;;;;;;;5.38;2.70;;;4.10;99.90;;;2.87;100.00;97775.13;4989576;28;20442;-74
2022/12/28 06:45:09;;;;;;;5.60;3.00;;;4.10;99.90;;;2.84;100.00;97770.31;4988700;28;20797;-74
2022/12/28 06:47:35;;;;;;;5.43;3.00;;;4.00;99.90;;;2.86;100.00;97765.66;4990084;28;20970;-74
2022/12/28 06:50:02;;;;;;;7.07;2.87;;;4.00;99.90;;;2.87;100.00;97764.66;4989227;28;20418;-74
2022/12/28 06:52:28;;;;;;;8.10;3.03;;;4.10;99.90;;;2.89;100.00;97764.47;4989228;28;20394;-73
2022/12/28 06:54:54;;;;;;;3.85;2.50;;;4.10;99.90;;;2.91;100.00;97763.31;4987077;28;20513;-73
2022/12/28 06:57:19;;;;;;;6.15;2.90;;;4.10;99.90;;;2.96;100.00;97770.56;4990066;28;21432;-73
2022/12/28 06:59:47;;;;;;;7.87;3.07;;;4.10;99.90;;;3.01;100.00;97768.97;4988873;28;20496;-73
2022/12/28 07:02:13;;;;;;;7.05;2.78;;;4.20;99.90;;;2.98;100.00;97771.19;4989282;28;20410;-73
2022/12/28 07:04:38;;;;;;;6.07;3.07;;;4.20;99.90;;;3.07;100.00;97759.56;4983426;28;20437;-73
2022/12/28 07:07:04;;;;;;;6.88;2.83;;;4.20;99.90;;;3.14;100.00;97767.44;4985028;28;20426;-73
2022/12/28 07:09:30;;;;;;;5.35;3.20;;;4.20;99.90;;;3.12;100.00;97757.16;4988510;28;20421;-74
2022/12/28 07:11:56;;;;;;;4.40;2.70;;;4.30;99.90;;;3.10;100.00;97757.34;4991962;28;20514;-74
2022/12/28 07:14:22;;;;;;;4.90;3.20;;;4.30;99.90;;;3.07;100.00;97755.13;4992232;28;20407;-73
2022/12/28 07:16:49;;;;;;;5.75;3.10;;;4.30;99.90;;;3.01;100.00;97747.25;4992213;28;20947;-73
2022/12/28 07:19:15;;;;;;;8.65;3.13;;;4.20;99.90;;;3.01;100.00;97742.00;4994225;28;20674;-73
2022/12/28 07:21:41;;;;;;;7.00;3.60;;;4.20;99.90;;;3.04;100.00;97746.88;4992490;28;20398;-74
2022/12/28 07:24:08;;;;;;;6.90;3.25;;;4.20;99.90;;;3.15;100.00;97743.72;4992520;28;20493;-74
2022/12/28 07:26:36;;;;;;;5.38;3.53;;;4.30;99.90;;;3.16;100.00;97741.91;4991001;28;21261;-73
2022/12/28 07:29:05;;;;;;;7.88;3.30;;;4.30;99.90;;;3.14;100.00;97749.13;4992334;28;20450;-73
2022/12/28 07:31:34;;;;;;;8.35;3.50;;;4.30;99.90;;;3.05;100.00;97741.44;4992613;28;20463;-74
2022/12/28 07:34:01;;;;;;;6.32;3.20;;;4.30;99.90;;;3.11;100.00;97742.47;4992649;28;20449;-73
2022/12/28 07:36:29;;;;;;;5.43;3.22;;;4.30;99.90;;;3.10;100.00;97740.84;4993111;28;20410;-73
2022/12/28 07:38:56;;;;;;;5.35;3.03;;;4.30;99.90;;;3.10;100.00;97739.03;4992506;28;20448;-73
2022/12/28 07:41:25;;;;;;;7.50;3.40;;;4.30;99.90;;;3.06;100.00;97744.88;4992635;28;20407;-74
2022/12/28 07:43:51;;;;;;;3.30;2.97;;;4.30;99.90;;;3.12;100.00;97741.47;4992536;28;20900;-74
2022/12/28 07:46:19;;;;;;;5.27;3.27;;;4.30;99.90;;;3.11;100.00;97742.47;4992899;28;20403;-74
2022/12/28 07:48:46;;;;;;;8.13;3.43;;;4.30;99.90;;;3.13;100.00;97748.31;4992773;28;20410;-74
2022/12/28 07:51:16;;;;;;;6.72;3.80;;;4.30;99.90;;;3.14;100.00;97739.47;4992707;28;20418;-74
2022/12/28 07:53:44;;;;;;;7.03;3.37;;;4.30;99.90;;;3.16;100.00;97744.53;4992350;28;20482;-74
2022/12/28 07:56:11;;;;;;;5.82;3.30;;;4.30;99.90;;;3.10;100.00;97739.03;4991460;28;20829;-72
2022/12/28 07:58:38;;;;;;;5.93;3.10;;;4.30;99.90;;;3.16;100.00;97750.53;4992515;28;20878;-73
2022/12/28 08:01:06;;;;;;;5.70;3.53;;;4.30;99.90;;;3.13;100.00;97737.84;4991519;28;20773;-73
2022/12/28 08:03:33;;;;;;;5.10;3.08;;;4.30;99.90;;;3.17;100.00;97749.53;4991751;28;20440;-73
2022/12/28 08:06:04;;;;;;;3.75;2.90;;;4.30;99.90;;;3.21;100.00;97740.31;4992700;28;20468;-71
2022/12/28 08:08:34;;;;;;;9.48;4.43;;;4.30;99.90;;;3.22;100.00;97728.84;4992911;28;20546;-72
2022/12/28 08:11:03;;;;;;;6.82;4.05;;;4.40;99.90;;;3.22;100.00;97738.50;4991677;28;20485;-71
2022/12/28 08:13:31;;;;;;;8.82;3.78;;;4.40;99.90;;;3.21;100.00;97736.88;4991241;28;20440;-72
2022/12/28 08:15:57;;;;;;;12.00;3.47;;;4.40;99.90;;;3.14;100.00;97738.66;4992214;28;20449;-72
2022/12/28 08:18:23;;;;;;;7.85;3.05;;;4.30;99.90;;;3.15;100.00;97725.41;4992104;28;20772;-72
2022/12/28 08:20:49;;;;;;;6.13;3.30;;;4.30;99.90;;;3.20;100.00;97730.03;4991546;28;20402;-71
2022/12/28 08:23:15;;;;;;;7.05;3.30;;;4.40;99.90;;;3.23;100.00;97724.41;4990561;28;20415;-72
2022/12/28 08:25:42;;;;;;;4.47;2.92;;;4.40;99.90;;;3.22;100.00;97725.41;4990520;28;20426;-71
2022/12/28 08:28:08;;;;;;;8.40;3.20;;;4.40;99.90;;;3.14;100.00;97729.00;4990886;28;20437;-73
2022/12/28 08:30:34;;;;;;;7.50;3.30;;;4.30;99.90;;;3.18;100.00;97724.19;4990621;28;21138;-74
2022/12/28 08:33:00;;;;;;;5.93;2.80;;;4.30;99.90;;;3.28;100.00;97717.59;4991160;28;20490;-73
2022/12/28 08:35:26;;;;;;;6.43;3.17;;;4.40;99.90;;;3.36;100.00;97716.59;4990968;28;21106;-74
2022/12/28 08:37:54;;;;;;;5.80;3.17;;;4.50;99.90;;;3.45;100.00;97712.81;4988891;28;20430;-73
2022/12/28 08:40:21;;;;;;;5.65;2.90;;;4.60;99.90;;;3.49;100.00;97709.59;4989378;28;20775;-73
2022/12/28 08:42:48;;;;;;;6.53;2.67;;;4.60;99.90;;;3.66;100.00;97709.22;4986716;28;20442;-74
2022/12/28 08:45:14;;;;;;;3.65;2.58;;;4.70;99.90;;;3.49;100.00;97708.78;4998826;28;20904;-74
2022/12/28 08:47:40;;;;;;;6.28;3.03;;;4.70;99.90;;;3.62;100.00;97710.63;5000880;28;20424;-74
2022/12/28 08:50:07;;;;;;;6.97;2.90;;;4.80;99.90;;;3.68;100.00;97704.59;4996476;28;20832;-74
2022/12/28 08:52:33;;;;;;;8.27;2.90;;;4.80;99.90;;;3.85;100.00;97704.00;5000760;28;20475;-74
2022/12/28 08:54:59;;;;;;;6.45;2.80;;;5.00;99.90;;;4.00;100.00;97703.00;5002807;28;20902;-74
2022/12/28 08:57:25;;;;;;;5.70;2.58;;;5.10;99.90;;;3.92;100.00;97701.38;5003233;28;20412;-74
2022/12/28 08:59:52;;;;;;;5.50;2.43;;;5.00;99.90;;;4.09;100.00;97705.22;5011209;28;20500;-74
2022/12/28 09:02:18;;;;;;;3.63;2.40;;;5.20;99.90;;;4.19;100.00;97702.22;5010477;28;20537;-74
2022/12/28 09:04:44;;;;;;;4.67;2.33;;;5.30;99.90;;;4.21;100.00;97700.19;5009497;28;20429;-74
2022/12/28 09:07:10;;;;;;;5.78;2.50;;;5.30;99.90;;;4.28;100.00;97691.28;5010986;28;20405;-74
2022/12/28 09:09:36;;;;;;;5.28;2.47;;;5.40;99.90;;;4.31;100.00;97697.94;5010837;28;20432;-74
2022/12/28 09:12:02;;;;;;;3.23;2.40;;;5.40;99.90;;;4.51;100.00;97692.69;5010113;28;20419;-74
2022/12/28 09:14:28;;;;;;;4.10;2.20;;;5.60;99.90;;;4.56;100.00;97695.50;5010665;28;20428;-74
2022/12/28 09:16:55;;;;;;;3.47;2.47;;;5.70;99.90;;;4.68;100.00;97693.84;5011028;28;20493;-73
2022/12/28 09:19:22;;;;;;;4.80;2.78;;;5.80;99.90;;;4.62;100.00;97700.72;5011179;28;20459;-74
2022/12/28 09:21:51;;;;;;;3.53;2.20;;;5.80;99.90;;;4.77;100.00;97695.25;5010284;28;20400;-74
2022/12/28 09:24:17;;;;;;;3.35;2.00;;;5.80;99.90;;;4.88;100.00;97702.47;5010709;28;20894;-74
2022/12/28 09:26:43;;;;;;;4.07;2.17;;;5.90;99.90;;;4.86;100.00;97703.69;5010850;28;20762;-74
2022/12/28 09:29:12;;;;;;;4.53;2.10;;;5.90;99.90;;;4.91;100.00;97693.38;5009384;28;20405;-74
2022/12/28 09:31:39;;;;;;;6.03;2.60;;;5.90;99.90;;;4.94;100.00;97692.97;5009376;28;20779;-74
2022/12/28 09:34:10;;;;;;;8.77;2.40;;;6.00;99.90;;;5.00;100.00;97689.50;5008858;28;20413;-74
2022/12/28 09:36:38;;;;;;;4.10;2.22;;;6.10;99.90;;;4.89;100.00;97688.34;5010755;28;20758;-74
2022/12/28 09:41:43;;;;;;;4.43;2.00;;;6.10;99.90;;;5.15;100.00;97676.13;4969209;28;20436;-74
2022/12/28 09:44:32;;;;;;;4.70;2.10;;;6.20;99.90;;;5.19;100.00;97679.97;4970913;28;20397;-75
2022/12/28 09:47:03;;;;;;;2.70;1.93;;;6.30;99.90;;;5.24;100.00;97680.94;4971275;28;20966;-76
2022/12/28 09:49:39;;;;;;;4.70;2.03;;;6.30;99.90;;;5.21;100.00;97677.91;4971234;28;20855;-76
2022/12/28 09:52:25;;;;;;;4.97;1.88;;;6.30;99.90;;;5.35;100.00;97677.63;4970381;28;20785;-76
2022/12/28 09:54:52;;;;;;;3.15;1.83;;;6.40;99.90;;;5.39;100.00;97678.84;4970808;28;20486;-76
2022/12/28 09:57:19;;;;;;;6.50;2.10;;;6.40;99.90;;;5.35;100.00;97679.44;4971105;28;20423;-76
2022/12/28 09:59:47;;;;;;;3.65;2.13;;;6.50;99.90;;;5.28;100.00;97676.88;4970965;28;20408;-76
2022/12/28 10:02:21;;;;;;;4.15;2.00;;;6.40;99.90;;;5.50;100.00;97669.47;4970345;28;20763;-76
2022/12/28 10:04:50;;;;;;;2.97;1.90;;;6.60;99.90;;;5.56;100.00;97662.59;4975859;28;20508;-76
2022/12/28 10:07:16;;;;;;;1.88;1.50;;;6.60;99.90;;;5.58;100.00;97663.16;4990452;28;20406;-76
2022/12/28 10:09:42;;;;;;;5.93;2.00;;;6.60;99.90;;;5.52;100.00;97667.44;4990259;28;20403;-76
2022/12/28 10:12:14;;;;;;;2.17;1.52;;;6.60;99.90;;;5.83;100.00;97664.00;4989701;28;20432;-76
2022/12/28 10:14:41;;;;;;;2.58;1.55;;;6.80;99.90;;;6.16;100.00;97658.50;4990318;28;20430;-76
2022/12/28 10:17:10;;;;;;;4.15;1.77;;;7.10;99.90;;;6.24;100.00;97652.19;4990416;28;20867;-76
2022/12/28 10:19:36;;;;;;;4.70;1.85;;;7.30;99.90;;;6.31;100.00;97648.47;4990680;28;20804;-76
2022/12/28 10:22:06;;;;;;;4.55;1.63;;;7.30;99.90;;;6.24;100.00;97646.91;4989484;28;20460;-76
2022/12/28 10:24:33;;;;;;;3.45;1.70;;;7.30;99.90;;;6.18;100.00;97649.38;4990280;28;20461;-75
2022/12/28 10:27:01;;;;;;;3.88;1.90;;;7.30;99.90;;;6.46;100.00;97638.41;4990104;28;20403;-76
2022/12/28 10:29:30;;;;;;;3.83;1.70;;;7.40;99.90;;;6.45;100.00;97631.53;4990329;28;20807;-76
2022/12/28 10:32:01;;;;;;;2.10;1.73;;;7.40;99.90;;;6.84;100.00;97634.75;4989583;28;20426;-76
2022/12/28 10:34:29;;;;;;;4.15;2.40;;;7.80;99.90;;;7.03;100.00;97628.41;4989791;28;20426;-76
2022/12/28 10:37:05;;;;;;;6.85;1.77;;;8.00;99.90;;;7.40;100.00;97623.84;4990138;28;20403;-76
2022/12/28 10:39:32;;;;;;;2.83;1.45;;;8.40;99.90;;;8.17;100.00;97608.84;4988670;28;20501;-77
2022/12/28 10:41:59;;;;;;;3.35;1.40;;;9.00;99.90;;;8.91;100.00;97615.97;4990866;28;20399;-76
2022/12/28 10:44:29;;;;;;;2.55;1.33;;;9.90;99.90;;;9.04;100.00;97612.25;4993836;28;20401;-76
2022/12/28 10:46:59;;;;;;;2.57;1.40;;;10.00;99.90;;;9.35;100.00;97604.88;4993762;28;20406;-76
2022/12/28 10:49:27;;;;;;;3.30;1.65;;;10.30;99.90;;;9.08;100.00;97594.09;4993870;28;20481;-76
2022/12/28 10:52:17;;;;;;;6.30;1.40;;;10.00;99.90;;;8.82;100.00;97604.19;4993171;28;20423;-75
2022/12/28 10:54:44;;;;;;;1.75;1.40;;;9.80;99.90;;;8.48;100.00;97600.59;4993316;28;20411;-76
2022/12/28 10:57:16;;;;;;;3.75;1.48;;;9.50;99.90;;;8.19;100.00;97596.25;4993707;28;20486;-76
2022/12/28 10:59:42;;;;;;;3.92;1.40;;;9.20;99.90;;;8.11;100.00;97601.88;4993703;28;20402;-76
2022/12/28 11:02:26;;;;;;;2.88;1.67;;;9.10;99.90;;;7.94;100.00;97607.00;4992943;28;20405;-76